createdAt,value
2023-02-16T00:00:34.322Z,5.45
2023-02-16T00:03:04.737Z,5.42
2023-02-16T00:05:36.262Z,5.44
2023-02-16T00:08:06.457Z,5.39
2023-02-16T00:10:40.355Z,5.24
2023-02-16T00:13:40.829Z,5.41
2023-02-16T00:16:15.565Z,5.42
2023-02-16T00:18:45.259Z,5.20
2023-02-16T00:21:15.584Z,5.39
2023-02-16T00:23:45.189Z,5.47
2023-02-16T00:26:17.683Z,4.37
2023-02-16T00:28:51.356Z,5.21
2023-02-16T00:31:24.062Z,5.26
2023-02-16T00:33:53.482Z,5.38
2023-02-16T00:36:23.326Z,5.52
2023-02-16T00:38:53.461Z,5.48
2023-02-16T00:41:43.170Z,5.44
2023-02-16T00:44:18.197Z,5.62
2023-02-16T00:46:49.090Z,5.22
2023-02-16T00:49:20.257Z,5.56
2023-02-16T00:51:51.248Z,5.32
2023-02-16T00:54:21.972Z,5.44
2023-02-16T00:56:52.198Z,5.41
2023-02-16T00:59:24.768Z,5.37
2023-02-16T01:01:55.088Z,5.08
2023-02-16T01:04:25.472Z,5.35
2023-02-16T01:07:12.380Z,5.34
2023-02-16T01:10:01.506Z,5.34
2023-02-16T01:12:31.068Z,5.33
2023-02-16T01:15:02.015Z,5.46
2023-02-16T01:17:32.743Z,5.26
2023-02-16T01:20:02.146Z,4.40
2023-02-16T01:22:33.468Z,5.46
2023-02-16T01:25:03.723Z,4.25
2023-02-16T01:27:33.486Z,5.39
2023-02-16T01:30:04.902Z,5.54
2023-02-16T01:32:34.575Z,5.44
2023-02-16T01:35:04.758Z,5.47
2023-02-16T01:37:34.357Z,5.41
2023-02-16T01:40:08.330Z,5.62
2023-02-16T01:42:48.182Z,5.46
2023-02-16T01:45:25.527Z,5.53
2023-02-16T01:47:58.278Z,5.42
2023-02-16T01:50:31.509Z,5.66
2023-02-16T01:53:03.293Z,5.44
2023-02-16T01:55:36.383Z,5.40
2023-02-16T01:58:14.872Z,5.39
2023-02-16T02:01:21.541Z,5.45
2023-02-16T02:04:10.048Z,5.47
2023-02-16T02:06:40.599Z,5.49
2023-02-16T02:09:15.903Z,5.53
2023-02-16T02:11:50.936Z,5.52
2023-02-16T02:14:25.619Z,5.58
2023-02-16T02:16:58.460Z,5.60
2023-02-16T02:19:32.863Z,5.43
2023-02-16T02:22:47.817Z,5.26
2023-02-16T02:25:41.693Z,4.54
2023-02-16T02:28:19.862Z,5.66
2023-02-16T02:30:57.046Z,5.60
2023-02-16T02:33:48.308Z,5.63
2023-02-16T02:36:29.005Z,5.60
2023-02-16T02:39:08.684Z,5.58
2023-02-16T02:42:01.824Z,5.57
2023-02-16T02:44:43.887Z,5.46
2023-02-16T02:47:14.010Z,5.60
2023-02-16T02:49:51.565Z,5.62
2023-02-16T02:52:22.912Z,5.64
2023-02-16T02:55:10.368Z,5.58
2023-02-16T02:58:03.022Z,5.40
2023-02-16T03:00:44.998Z,5.48
2023-02-16T03:03:20.152Z,5.65
2023-02-16T03:05:56.628Z,5.75
2023-02-16T03:08:30.284Z,5.45
2023-02-16T03:11:23.178Z,5.31
2023-02-16T03:13:57.536Z,5.56
2023-02-16T03:16:32.631Z,5.64
2023-02-16T03:19:21.513Z,5.63
2023-02-16T03:22:09.553Z,5.65
2023-02-16T03:24:56.882Z,5.73
2023-02-16T03:27:49.116Z,5.72
2023-02-16T03:30:20.731Z,5.76
2023-02-16T03:32:53.854Z,5.66
2023-02-16T03:35:24.316Z,5.65
2023-02-16T03:37:53.802Z,5.85
2023-02-16T03:40:29.389Z,5.74
2023-02-16T03:43:01.921Z,5.74
2023-02-16T03:45:33.114Z,5.73
2023-02-16T03:48:04.715Z,5.65
2023-02-16T03:50:34.366Z,5.71
2023-02-16T03:53:07.967Z,5.63
2023-02-16T03:55:39.189Z,5.64
2023-02-16T03:58:12.710Z,5.75
2023-02-16T04:00:42.696Z,5.93
2023-02-16T04:03:14.127Z,5.91
2023-02-16T04:05:43.932Z,5.83
2023-02-16T04:08:14.539Z,4.78
2023-02-16T04:10:44.547Z,5.75
2023-02-16T04:13:13.806Z,4.76
2023-02-16T04:15:43.108Z,5.93
2023-02-16T04:18:14.258Z,5.82
2023-02-16T04:20:44.649Z,5.94
2023-02-16T04:23:14.730Z,5.98
2023-02-16T04:25:45.722Z,5.79
2023-02-16T04:28:15.448Z,5.91
2023-02-16T04:30:45.232Z,5.97
2023-02-16T04:33:16.399Z,5.90
2023-02-16T04:35:46.199Z,4.58
2023-02-16T04:38:15.992Z,5.92
2023-02-16T04:40:45.439Z,5.80
2023-02-16T04:43:15.244Z,5.85
2023-02-16T04:45:44.948Z,5.82
2023-02-16T04:48:17.953Z,5.85
2023-02-16T04:50:47.943Z,5.81
2023-02-16T04:53:20.085Z,5.79
2023-02-16T04:55:50.568Z,5.95
2023-02-16T04:58:20.912Z,5.66
2023-02-16T05:00:51.146Z,6.01
2023-02-16T05:03:22.147Z,5.69
2023-02-16T05:05:52.242Z,5.96
2023-02-16T05:08:21.935Z,5.98
2023-02-16T05:11:08.715Z,5.86
2023-02-16T05:13:56.152Z,5.83
2023-02-16T05:16:26.951Z,5.82
2023-02-16T05:18:58.959Z,5.92
2023-02-16T05:21:35.411Z,5.86
2023-02-16T05:24:07.739Z,5.82
2023-02-16T05:26:40.616Z,5.86
2023-02-16T05:29:11.079Z,5.77
2023-02-16T05:31:42.218Z,6.12
2023-02-16T05:34:14.424Z,6.04
2023-02-16T05:36:45.508Z,5.87
2023-02-16T05:39:15.288Z,6.00
2023-02-16T05:41:44.958Z,6.01
2023-02-16T05:44:15.479Z,5.83
2023-02-16T05:46:46.539Z,5.92
2023-02-16T05:49:18.279Z,6.06
2023-02-16T05:51:48.438Z,5.70
2023-02-16T05:54:20.239Z,5.75
2023-02-16T05:56:52.568Z,5.65
2023-02-16T05:59:22.395Z,5.90
2023-02-16T06:01:52.667Z,6.12
2023-02-16T06:04:23.762Z,5.88
2023-02-16T06:06:53.834Z,6.07
2023-02-16T06:09:23.399Z,5.97
2023-02-16T06:11:56.033Z,5.97
2023-02-16T06:14:26.155Z,6.02
2023-02-16T06:16:58.871Z,5.79
2023-02-16T06:19:30.201Z,5.85
2023-02-16T06:22:00.022Z,5.98
2023-02-16T06:24:29.615Z,6.01
2023-02-16T06:27:00.184Z,5.90
2023-02-16T06:29:29.840Z,5.71
2023-02-16T06:32:00.077Z,5.77
2023-02-16T06:34:31.097Z,5.76
2023-02-16T06:37:01.046Z,5.83
2023-02-16T06:39:32.672Z,5.93
2023-02-16T06:42:02.691Z,5.81
2023-02-16T06:44:32.357Z,5.93
2023-02-16T06:47:02.105Z,5.92
2023-02-16T06:49:32.996Z,5.90
2023-02-16T06:52:02.722Z,4.72
2023-02-16T06:54:32.005Z,5.91
2023-02-16T06:57:02.299Z,5.71
2023-02-16T06:59:31.930Z,5.91
2023-02-16T07:02:01.950Z,6.04
2023-02-16T07:04:32.899Z,5.99
2023-02-16T07:07:02.508Z,6.06
2023-02-16T07:09:32.289Z,6.10
2023-02-16T07:12:02.118Z,6.10
2023-02-16T07:14:33.181Z,6.11
2023-02-16T07:17:04.548Z,6.15
2023-02-16T07:19:35.698Z,6.07
2023-02-16T07:22:06.310Z,6.12
2023-02-16T07:24:36.564Z,6.11
2023-02-16T07:27:08.692Z,6.05
2023-02-16T07:29:38.393Z,6.02
2023-02-16T07:32:08.409Z,6.20
2023-02-16T07:34:39.054Z,5.61
2023-02-16T07:37:09.122Z,5.85
2023-02-16T07:39:38.917Z,5.83
2023-02-16T07:42:09.170Z,6.04
2023-02-16T07:44:38.797Z,6.14
2023-02-16T07:47:08.537Z,5.89
2023-02-16T07:49:40.468Z,6.14
2023-02-16T07:52:10.384Z,6.17
2023-02-16T07:54:40.078Z,6.10
2023-02-16T07:57:12.381Z,6.15
2023-02-16T07:59:42.341Z,6.09
2023-02-16T08:02:17.481Z,6.14
2023-02-16T08:04:49.135Z,6.14
2023-02-16T08:07:20.370Z,6.19
2023-02-16T08:09:51.002Z,6.25
2023-02-16T08:12:22.031Z,6.17
2023-02-16T08:14:54.161Z,6.10
2023-02-16T08:17:24.780Z,5.91
2023-02-16T08:19:56.507Z,6.20
2023-02-16T08:22:26.109Z,6.04
2023-02-16T08:24:59.665Z,6.28
2023-02-16T08:27:29.024Z,6.21
2023-02-16T08:29:58.776Z,6.11
2023-02-16T08:32:28.456Z,6.25
2023-02-16T08:34:59.477Z,6.26
2023-02-16T08:37:29.227Z,6.15
2023-02-16T08:40:00.889Z,5.71
2023-02-16T08:42:30.182Z,5.93
2023-02-16T08:45:01.606Z,6.16
2023-02-16T08:47:30.954Z,6.27
2023-02-16T08:50:01.573Z,6.24
2023-02-16T08:52:33.513Z,5.70
2023-02-16T08:55:03.590Z,6.28
2023-02-16T08:57:35.095Z,6.35
2023-02-16T09:00:22.522Z,6.34
2023-02-16T09:02:52.308Z,6.39
2023-02-16T09:05:22.850Z,6.28
2023-02-16T09:07:54.572Z,6.38
2023-02-16T09:10:24.870Z,6.48
2023-02-16T09:12:55.729Z,6.21
2023-02-16T09:15:25.505Z,6.49
2023-02-16T09:17:58.481Z,6.48
2023-02-16T09:20:29.309Z,6.34
2023-02-16T09:22:59.330Z,6.69
2023-02-16T09:25:28.754Z,6.82
2023-02-16T09:27:58.672Z,6.42
2023-02-16T09:30:28.605Z,6.38
2023-02-16T09:32:59.724Z,6.65
2023-02-16T09:35:30.965Z,6.61
2023-02-16T09:38:00.490Z,6.64
2023-02-16T09:40:32.255Z,6.81
2023-02-16T09:43:09.933Z,6.75
2023-02-16T09:45:44.353Z,6.71
2023-02-16T09:48:24.687Z,6.78
2023-02-16T09:51:00.013Z,5.46
2023-02-16T09:53:36.316Z,6.79
2023-02-16T09:56:17.299Z,6.94
2023-02-16T09:58:50.923Z,7.11
2023-02-16T10:01:29.434Z,7.00
2023-02-16T10:04:12.612Z,7.11
2023-02-16T10:06:58.561Z,6.94
2023-02-16T10:09:30.277Z,7.09
2023-02-16T10:12:24.500Z,7.08
2023-02-16T10:15:22.879Z,7.08
2023-02-16T10:18:07.779Z,6.85
2023-02-16T10:20:41.713Z,6.99
2023-02-16T10:23:32.770Z,7.02
2023-02-16T10:26:12.486Z,6.81
2023-02-16T10:28:48.258Z,6.80
2023-02-16T10:31:24.023Z,7.11
2023-02-16T10:34:07.176Z,7.11
2023-02-16T10:36:56.297Z,7.13
2023-02-16T10:39:36.055Z,7.22
2023-02-16T10:42:17.105Z,7.18
2023-02-16T10:44:52.768Z,7.22
2023-02-16T10:47:33.082Z,7.24
2023-02-16T10:50:02.911Z,7.36
2023-02-16T10:52:38.290Z,7.31
2023-02-16T10:55:13.056Z,7.40
2023-02-16T10:57:42.114Z,6.60
2023-02-16T11:00:17.910Z,7.41
2023-02-16T11:02:49.583Z,6.38
2023-02-16T11:05:38.423Z,7.55
2023-02-16T11:08:11.404Z,7.66
2023-02-16T11:10:49.248Z,7.55
2023-02-16T11:13:29.381Z,7.52
2023-02-16T11:16:02.937Z,6.40
2023-02-16T11:18:37.931Z,7.67
2023-02-16T11:21:09.158Z,7.50
2023-02-16T11:23:40.222Z,7.73
2023-02-16T11:26:25.174Z,7.66
2023-02-16T11:28:55.132Z,6.34
2023-02-16T11:31:31.800Z,7.68
2023-02-16T11:34:05.859Z,7.80
2023-02-16T11:36:39.474Z,7.95
2023-02-16T11:39:11.220Z,8.08
2023-02-16T11:41:46.382Z,6.81
2023-02-16T11:44:27.461Z,7.71
2023-02-16T11:46:59.344Z,7.94
2023-02-16T11:49:33.597Z,8.13
2023-02-16T11:52:21.140Z,7.29
2023-02-16T11:54:52.857Z,8.57
2023-02-16T11:57:28.721Z,8.66
2023-02-16T11:59:59.555Z,8.63
2023-02-16T12:02:51.173Z,8.74
2023-02-16T12:05:28.067Z,8.73
2023-02-16T12:08:16.231Z,8.59
2023-02-16T12:11:02.843Z,8.72
2023-02-16T12:13:45.102Z,8.83
2023-02-16T12:16:26.244Z,8.78
2023-02-16T12:19:12.878Z,7.73
2023-02-16T12:21:48.514Z,9.09
2023-02-16T12:24:26.250Z,9.01
2023-02-16T12:26:58.941Z,7.73
2023-02-16T12:29:54.079Z,9.14
2023-02-16T12:32:45.871Z,9.24
2023-02-16T12:35:45.034Z,9.18
2023-02-16T12:38:25.017Z,9.35
2023-02-16T12:41:06.509Z,9.50
2023-02-16T12:43:39.738Z,9.54
2023-02-16T12:46:21.444Z,9.59
2023-02-16T12:48:57.386Z,8.54
2023-02-16T12:51:31.883Z,9.55
2023-02-16T12:54:06.344Z,9.66
2023-02-16T12:56:43.384Z,9.57
2023-02-16T12:59:23.281Z,9.69
2023-02-16T13:01:57.453Z,9.64
2023-02-16T13:04:39.719Z,9.58
2023-02-16T13:07:18.329Z,9.64
2023-02-16T13:09:58.969Z,9.73
2023-02-16T13:12:33.837Z,9.86
2023-02-16T13:15:12.390Z,9.68
2023-02-16T13:17:47.671Z,9.77
2023-02-16T13:20:19.036Z,9.72
2023-02-16T13:23:36.153Z,9.89
2023-02-16T13:26:30.068Z,9.80
2023-02-16T13:29:33.070Z,9.68
2023-02-16T13:32:37.586Z,9.77
2023-02-16T13:35:39.473Z,9.78
2023-02-16T13:38:32.993Z,9.70
2023-02-16T13:41:44.521Z,9.58
2023-02-16T13:44:17.578Z,9.70
2023-02-16T13:46:53.055Z,9.45
2023-02-16T13:49:36.282Z,9.64
2023-02-16T13:52:07.806Z,9.75
2023-02-16T13:54:42.040Z,9.43
2023-02-16T13:57:18.615Z,9.50
2023-02-16T13:59:59.840Z,9.41
2023-02-16T14:02:55.814Z,9.38
2023-02-16T14:05:26.312Z,9.42
2023-02-16T14:08:19.031Z,9.43
2023-02-16T14:11:13.933Z,9.38
2023-02-16T14:13:51.605Z,9.32
2023-02-16T14:16:33.168Z,9.27
2023-02-16T14:19:18.618Z,9.38
2023-02-16T14:21:50.364Z,9.23
2023-02-16T14:24:32.981Z,9.44
2023-02-16T14:27:05.424Z,9.28
2023-02-16T14:29:39.027Z,9.40
2023-02-16T14:32:24.465Z,9.48
2023-02-16T14:34:59.340Z,9.32
2023-02-16T14:37:36.827Z,9.36
2023-02-16T14:40:17.679Z,9.29
2023-02-16T14:42:55.243Z,9.29
2023-02-16T14:45:51.325Z,9.33
2023-02-16T14:48:42.495Z,9.29
2023-02-16T14:51:35.822Z,9.27
2023-02-16T14:54:51.583Z,9.07
2023-02-16T14:57:25.782Z,9.36
2023-02-16T15:00:03.179Z,9.19
2023-02-16T15:02:36.491Z,9.07
2023-02-16T15:05:18.876Z,9.08
2023-02-16T15:07:54.998Z,8.95
2023-02-16T15:10:28.297Z,8.91
2023-02-16T15:12:58.778Z,8.88
2023-02-16T15:15:42.057Z,8.90
2023-02-16T15:18:16.686Z,8.92
2023-02-16T15:20:51.249Z,8.96
2023-02-16T15:23:22.911Z,9.05
2023-02-16T15:25:58.735Z,8.97
2023-02-16T15:28:31.113Z,9.18
2023-02-16T15:31:05.833Z,9.05
2023-02-16T15:33:40.073Z,9.00
2023-02-16T15:36:20.545Z,8.85
2023-02-16T15:38:58.217Z,8.97
2023-02-16T15:41:30.310Z,9.07
2023-02-16T15:44:04.079Z,8.92
2023-02-16T15:46:37.455Z,8.96
2023-02-16T15:49:16.645Z,8.84
2023-02-16T15:51:46.521Z,8.91
2023-02-16T15:54:28.207Z,9.02
2023-02-16T15:56:59.843Z,8.95
2023-02-16T15:59:35.817Z,8.94
2023-02-16T16:02:16.446Z,8.88
2023-02-16T16:04:49.221Z,8.62
2023-02-16T16:07:26.755Z,8.78
2023-02-16T16:09:57.907Z,8.88
2023-02-16T16:12:28.057Z,8.52
2023-02-16T16:15:00.256Z,8.58
2023-02-16T16:17:33.338Z,8.73
2023-02-16T16:20:25.901Z,8.68
2023-02-16T16:22:58.617Z,8.81
2023-02-16T16:25:39.927Z,8.64
2023-02-16T16:28:13.393Z,8.58
2023-02-16T16:30:45.515Z,8.63
2023-02-16T16:33:17.271Z,8.68
2023-02-16T16:35:51.659Z,8.62
2023-02-16T16:38:26.268Z,8.47
2023-02-16T16:40:58.344Z,8.63
2023-02-16T16:43:30.651Z,8.66
2023-02-16T16:46:14.862Z,8.82
2023-02-16T16:48:48.561Z,8.66
2023-02-16T16:51:21.439Z,7.68
2023-02-16T16:53:55.289Z,7.44
2023-02-16T16:56:25.260Z,8.28
2023-02-16T16:58:56.913Z,8.57
2023-02-16T17:01:28.768Z,8.63
2023-02-16T17:04:00.261Z,8.71
2023-02-16T17:06:29.941Z,8.59
2023-02-16T17:09:00.012Z,8.44
2023-02-16T17:11:33.683Z,8.28
2023-02-16T17:14:09.848Z,8.43
2023-02-16T17:16:42.373Z,8.70
2023-02-16T17:19:15.198Z,8.43
2023-02-16T17:21:45.631Z,8.54
2023-02-16T17:24:15.633Z,8.50
2023-02-16T17:26:45.679Z,8.68
2023-02-16T17:29:16.335Z,8.71
2023-02-16T17:31:46.069Z,8.62
2023-02-16T17:34:16.916Z,8.71
2023-02-16T17:36:47.270Z,8.60
2023-02-16T17:39:16.813Z,7.71
2023-02-16T17:41:46.511Z,8.52
2023-02-16T17:44:16.139Z,8.76
2023-02-16T17:46:46.954Z,8.62
2023-02-16T17:49:17.885Z,8.67
2023-02-16T17:51:47.705Z,8.31
2023-02-16T17:54:17.653Z,8.28
2023-02-16T17:56:48.338Z,8.54
2023-02-16T17:59:17.543Z,8.53
2023-02-16T18:01:47.227Z,8.42
2023-02-16T18:04:18.778Z,8.46
2023-02-16T18:06:48.807Z,8.39
2023-02-16T18:09:24.160Z,8.44
2023-02-16T18:11:53.550Z,8.47
2023-02-16T18:14:23.346Z,8.45
2023-02-16T18:16:53.758Z,8.45
2023-02-16T18:19:27.943Z,8.39
2023-02-16T18:21:57.616Z,8.63
2023-02-16T18:24:27.113Z,8.67
2023-02-16T18:26:57.322Z,8.63
2023-02-16T18:29:27.034Z,7.70
2023-02-16T18:31:57.576Z,8.68
2023-02-16T18:34:28.652Z,8.85
2023-02-16T18:36:58.454Z,8.88
2023-02-16T18:39:27.842Z,8.62
2023-02-16T18:41:57.239Z,8.76
2023-02-16T18:44:27.421Z,8.58
2023-02-16T18:46:57.450Z,8.70
2023-02-16T18:49:28.425Z,8.66
2023-02-16T18:51:58.643Z,8.66
2023-02-16T18:54:28.472Z,8.70
2023-02-16T18:56:58.363Z,8.75
2023-02-16T18:59:27.800Z,8.83
2023-02-16T19:01:58.327Z,8.89
2023-02-16T19:04:29.583Z,8.76
2023-02-16T19:06:59.449Z,8.77
2023-02-16T19:09:28.847Z,8.79
2023-02-16T19:11:58.260Z,8.72
2023-02-16T19:14:28.200Z,8.55
2023-02-16T19:16:58.228Z,8.63
2023-02-16T19:19:30.812Z,8.68
2023-02-16T19:22:00.787Z,8.59
2023-02-16T19:24:31.346Z,8.72
2023-02-16T19:27:01.032Z,8.88
2023-02-16T19:29:30.646Z,8.79
2023-02-16T19:32:00.498Z,8.79
2023-02-16T19:34:31.410Z,8.80
2023-02-16T19:37:01.319Z,9.05
2023-02-16T19:39:30.709Z,8.77
2023-02-16T19:42:01.048Z,8.70
2023-02-16T19:44:30.783Z,8.72
2023-02-16T19:47:00.733Z,8.90
2023-02-16T19:49:32.436Z,8.85
2023-02-16T19:52:04.282Z,8.91
2023-02-16T19:54:36.141Z,8.56
2023-02-16T19:57:06.773Z,8.83
2023-02-16T19:59:38.933Z,8.87
2023-02-16T20:02:10.706Z,8.97
2023-02-16T20:04:42.082Z,8.91
2023-02-16T20:07:12.485Z,9.14
2023-02-16T20:09:47.977Z,8.84
2023-02-16T20:12:21.090Z,9.08
2023-02-16T20:14:50.938Z,9.08
2023-02-16T20:17:20.901Z,9.16
2023-02-16T20:19:52.269Z,9.34
2023-02-16T20:22:22.103Z,9.45
2023-02-16T20:24:51.578Z,9.34
2023-02-16T20:27:21.422Z,9.24
2023-02-16T20:29:51.422Z,9.50
2023-02-16T20:32:20.711Z,9.36
2023-02-16T20:34:52.114Z,9.49
2023-02-16T20:37:22.724Z,9.30
2023-02-16T20:39:52.751Z,9.26
2023-02-16T20:42:22.455Z,9.23
2023-02-16T20:44:52.051Z,9.34
2023-02-16T20:47:21.664Z,9.12
2023-02-16T20:49:57.445Z,9.33
2023-02-16T20:52:26.683Z,9.26
2023-02-16T20:54:56.671Z,9.22
2023-02-16T20:57:27.485Z,9.18
2023-02-16T20:59:57.503Z,8.98
2023-02-16T21:02:27.840Z,8.98
2023-02-16T21:04:59.306Z,9.14
2023-02-16T21:07:28.998Z,8.88
2023-02-16T21:09:59.312Z,9.05
2023-02-16T21:12:28.868Z,8.94
2023-02-16T21:14:58.526Z,8.87
2023-02-16T21:17:28.693Z,9.02
2023-02-16T21:20:01.998Z,9.16
2023-02-16T21:22:31.606Z,9.13
2023-02-16T21:25:00.949Z,9.11
2023-02-16T21:27:30.147Z,9.04
2023-02-16T21:29:59.957Z,9.27
2023-02-16T21:32:29.533Z,9.21
2023-02-16T21:34:59.082Z,9.35
2023-02-16T21:37:29.690Z,9.17
2023-02-16T21:40:16.362Z,9.45
2023-02-16T21:42:46.149Z,9.16
2023-02-16T21:45:17.059Z,9.05
2023-02-16T21:48:05.575Z,9.05
2023-02-16T21:50:38.004Z,7.99
2023-02-16T21:53:10.531Z,9.26
2023-02-16T21:56:00.273Z,8.25
2023-02-16T21:58:33.181Z,9.35
2023-02-16T22:01:03.057Z,9.32
2023-02-16T22:03:32.446Z,9.20
2023-02-16T22:06:03.884Z,9.35
2023-02-16T22:08:38.171Z,9.29
2023-02-16T22:11:09.257Z,9.24
2023-02-16T22:13:39.440Z,9.16
2023-02-16T22:16:13.625Z,9.16
2023-02-16T22:18:43.936Z,8.84
2023-02-16T22:21:14.203Z,9.13
2023-02-16T22:23:45.366Z,9.20
2023-02-16T22:26:26.818Z,9.15
2023-02-16T22:28:57.540Z,9.00
2023-02-16T22:31:28.809Z,9.28
2023-02-16T22:33:59.519Z,8.99
2023-02-16T22:36:29.442Z,8.88
2023-02-16T22:39:02.908Z,9.12
2023-02-16T22:41:34.214Z,9.06
2023-02-16T22:44:04.237Z,9.31
2023-02-16T22:46:34.028Z,9.25
2023-02-16T22:49:03.774Z,8.99
2023-02-16T22:51:33.085Z,9.39
2023-02-16T22:54:07.430Z,9.34
2023-02-16T22:56:37.160Z,9.14
2023-02-16T22:59:06.955Z,9.22
2023-02-16T23:01:36.975Z,9.13
2023-02-16T23:04:07.292Z,9.08
2023-02-16T23:06:38.179Z,9.13
2023-02-16T23:09:13.561Z,9.11
2023-02-16T23:11:43.671Z,9.02
2023-02-16T23:14:17.600Z,7.95
2023-02-16T23:16:51.052Z,9.16
2023-02-16T23:19:22.368Z,9.22
2023-02-16T23:21:52.389Z,8.97
2023-02-16T23:24:25.175Z,9.20
2023-02-16T23:26:55.444Z,9.16
2023-02-16T23:29:25.148Z,8.97
2023-02-16T23:31:54.897Z,9.16
2023-02-16T23:34:24.301Z,9.24
2023-02-16T23:36:56.291Z,9.20
2023-02-16T23:39:26.596Z,9.13
2023-02-16T23:41:56.894Z,9.06
2023-02-16T23:44:26.430Z,8.74
2023-02-16T23:46:56.669Z,9.12
2023-02-16T23:49:26.103Z,9.02
2023-02-16T23:51:55.884Z,9.23
2023-02-16T23:54:26.499Z,9.02
2023-02-16T23:56:56.301Z,9.06
2023-02-16T23:59:27.925Z,8.89
